Time;durP1;ratioP1;P1;durP2;ratioP2;P2;SDS_P1;SDS_P2;PMS_P1;PMS_P2;Temp;Humidity;BMP_temperature;BMP_pressure;BME280_temperature;BME280_humidity;BME280_pressure;Samples;Min_cycle;Max_cycle;Signal;HPM_P1;HPM_P2
2022/10/12 00:00:16;;;;;;;3.60;1.50;;;;;;;25.79;45.91;100860.41;104983;1307;21974;-56
2022/10/12 00:02:42;;;;;;;2.30;1.20;;;;;;;25.73;45.94;100861.48;104879;1304;21967;-57
2022/10/12 00:05:08;;;;;;;3.70;1.70;;;;;;;25.71;46.11;100863.31;104753;1315;21967;-56
2022/10/12 00:07:35;;;;;;;3.40;2.00;;;;;;;25.69;46.11;100866.63;104989;1303;21978;-57
2022/10/12 00:10:02;;;;;;;4.40;2.30;;;;;;;25.72;46.10;100865.92;104981;1303;21983;-57
2022/10/12 00:12:32;;;;;;;2.90;1.60;;;;;;;25.76;46.09;100869.58;104945;1302;21971;-56
2022/10/12 00:14:58;;;;;;;2.80;1.60;;;;;;;25.82;46.08;100873.32;104844;1307;21972;-56
2022/10/12 00:17:24;;;;;;;3.70;1.70;;;;;;;25.85;46.04;100871.30;104997;1310;21977;-57
2022/10/12 00:19:49;;;;;;;3.10;1.70;;;;;;;25.84;46.06;100875.29;104708;1309;21971;-56
2022/10/12 00:22:15;;;;;;;2.70;1.80;;;;;;;25.92;45.88;100872.98;104968;1301;21990;-57
2022/10/12 00:24:41;;;;;;;2.50;1.60;;;;;;;25.95;45.95;100872.22;105041;1306;21970;-57
2022/10/12 00:27:07;;;;;;;3.70;1.60;;;;;;;25.95;45.86;100874.73;104953;1306;21991;-56
2022/10/12 00:29:34;;;;;;;2.30;1.60;;;;;;;25.92;45.96;100874.79;104979;1303;21986;-56
2022/10/12 00:32:00;;;;;;;3.10;1.80;;;;;;;25.90;45.91;100874.94;104973;1305;21965;-56
2022/10/12 00:34:26;;;;;;;3.40;1.60;;;;;;;25.88;45.82;100873.58;105037;1314;21973;-56
2022/10/12 00:36:54;;;;;;;3.00;1.70;;;;;;;26.03;45.49;100871.13;104966;1303;21974;-56
2022/10/12 00:39:20;;;;;;;4.10;1.80;;;;;;;26.06;45.39;100876.29;104941;1307;21978;-56
2022/10/12 00:41:45;;;;;;;2.80;2.00;;;;;;;26.07;45.30;100877.84;104958;1307;21997;-56
2022/10/12 00:44:33;;;;;;;3.00;1.40;;;;;;;26.09;45.24;100880.41;104891;1303;21969;-56
2022/10/12 00:46:59;;;;;;;3.00;1.50;;;;;;;26.05;45.22;100880.02;104967;1314;21972;-57
2022/10/12 00:49:25;;;;;;;3.50;1.60;;;;;;;26.05;45.28;100883.39;104883;1302;21981;-56
2022/10/12 00:51:55;;;;;;;2.90;1.70;;;;;;;26.08;45.14;100884.24;104711;1316;22181;-56
2022/10/12 00:54:23;;;;;;;3.30;1.90;;;;;;;26.12;45.11;100882.02;105016;1316;22065;-56
2022/10/12 00:56:49;;;;;;;3.20;1.70;;;;;;;26.15;45.14;100879.31;104971;1307;21987;-57
2022/10/12 00:59:21;;;;;;;3.20;1.60;;;;;;;26.11;45.29;100880.98;104982;1301;21977;-57
2022/10/12 01:01:47;;;;;;;3.30;2.10;;;;;;;26.13;45.32;100880.86;105095;1303;21978;-56
2022/10/12 01:04:13;;;;;;;1.80;1.60;;;;;;;26.18;45.32;100883.30;104953;1315;21976;-57
2022/10/12 01:06:39;;;;;;;4.70;1.70;;;;;;;26.22;45.30;100881.91;104966;1307;21978;-57
2022/10/12 01:09:06;;;;;;;3.00;1.80;;;;;;;26.25;45.21;100881.50;104755;1315;21968;-56
2022/10/12 01:11:33;;;;;;;3.00;1.90;;;;;;;26.36;44.97;100877.13;104776;1310;21983;-56
2022/10/12 01:13:59;;;;;;;2.70;1.80;;;;;;;26.42;44.79;100878.35;104995;1307;21989;-58
2022/10/12 01:16:40;;;;;;;3.30;1.80;;;;;;;26.33;44.91;100877.67;104711;1304;22031;-56
2022/10/12 01:19:18;;;;;;;3.10;1.80;;;;;;;26.10;45.26;100877.33;104986;1301;21987;-55
2022/10/12 01:21:50;;;;;;;2.00;1.60;;;;;;;25.99;45.38;100876.80;105048;1303;21974;-56
2022/10/12 01:24:34;;;;;;;3.30;1.70;;;;;;;25.95;45.45;100878.68;105121;1307;21960;-57
2022/10/12 01:27:19;;;;;;;2.50;1.50;;;;;;;25.91;45.42;100883.44;105067;1307;22137;-57
2022/10/12 01:29:57;;;;;;;2.20;1.50;;;;;;;25.88;45.50;100886.55;104801;1315;21979;-57
2022/10/12 01:32:44;;;;;;;2.30;1.50;;;;;;;25.85;45.43;100885.15;104970;1307;21982;-56
2022/10/12 01:35:44;;;;;;;2.50;1.80;;;;;;;25.80;45.43;100887.48;104955;1301;21973;-56
2022/10/12 01:38:25;;;;;;;3.10;1.80;;;;;;;25.72;45.60;100892.13;105030;1306;21984;-56
2022/10/12 01:41:05;;;;;;;2.40;1.40;;;;;;;25.71;45.55;100895.45;104992;1307;22222;-56
2022/10/12 01:43:36;;;;;;;2.40;1.60;;;;;;;25.72;45.63;100895.04;104998;1307;21980;-56
2022/10/12 01:46:04;;;;;;;;;;;;;;;25.76;45.63;100900.35;105048;1305;22010;-56
2022/10/12 01:48:30;;;;;;;4.30;1.80;;;;;;;25.79;45.64;100899.75;105010;1310;21987;-55
2022/10/12 01:50:55;;;;;;;2.80;1.60;;;;;;;25.83;45.59;100897.30;104970;1304;22004;-56
2022/10/12 01:53:52;;;;;;;3.50;1.80;;;;;;;25.86;45.61;100897.45;105002;1303;21977;-56
2022/10/12 01:56:26;;;;;;;3.60;1.80;;;;;;;25.90;45.46;100895.54;105082;1307;21977;-58
2022/10/12 01:59:18;;;;;;;2.70;1.80;;;;;;;25.91;45.49;100893.55;105006;1297;21973;-56
2022/10/12 02:01:59;;;;;;;3.80;2.00;;;;;;;25.89;45.37;100895.48;105062;1307;24392;-56
2022/10/12 02:04:48;;;;;;;2.30;1.60;;;;;;;25.88;45.32;100894.64;105089;1316;21988;-56
2022/10/12 02:07:29;;;;;;;2.80;1.80;;;;;;;25.81;45.39;100893.64;104939;1304;21979;-56
2022/10/12 02:09:57;;;;;;;2.70;1.90;;;;;;;25.79;45.40;100892.58;105051;1301;22165;-56
2022/10/12 02:12:23;;;;;;;4.10;1.90;;;;;;;25.79;45.43;100890.21;104967;1315;22421;-56
2022/10/12 02:14:53;;;;;;;3.00;1.70;;;;;;;25.83;45.38;100887.95;104969;1304;21990;-56
2022/10/12 02:17:20;;;;;;;2.30;1.70;;;;;;;25.82;45.30;100892.74;105046;1307;21985;-56
2022/10/12 02:19:49;;;;;;;2.70;1.60;;;;;;;25.79;45.32;100896.00;105003;1304;21987;-57
2022/10/12 02:22:15;;;;;;;3.60;2.00;;;;;;;25.78;45.30;100901.06;105066;1301;22045;-57
2022/10/12 02:24:45;;;;;;;2.70;1.80;;;;;;;25.76;45.21;100901.91;104903;1304;21984;-56
2022/10/12 02:27:11;;;;;;;2.60;1.80;;;;;;;25.76;45.40;100901.05;105106;1315;21985;-56
2022/10/12 02:29:39;;;;;;;1.70;1.30;;;;;;;25.78;45.34;100905.36;105075;1310;21979;-56
2022/10/12 02:32:14;;;;;;;3.90;1.80;;;;;;;25.83;45.31;100905.21;105136;1312;22946;-51
2022/10/12 02:34:51;;;;;;;2.90;1.70;;;;;;;25.88;45.29;100906.88;105111;1315;21973;-52
2022/10/12 02:37:27;;;;;;;2.50;1.40;;;;;;;25.94;45.23;100907.17;104978;1301;21976;-51
2022/10/12 02:40:01;;;;;;;3.70;1.80;;;;;;;26.01;45.15;100909.06;104937;1304;21967;-52
2022/10/12 02:42:32;;;;;;;3.40;2.00;;;;;;;26.07;45.01;100907.92;105132;1312;22058;-51
2022/10/12 02:44:58;;;;;;;3.90;1.70;;;;;;;26.10;45.01;100906.64;105044;1312;21978;-51
2022/10/12 02:47:25;;;;;;;2.60;1.70;;;;;;;26.13;44.83;100906.96;105011;1315;21982;-51
2022/10/12 02:49:51;;;;;;;2.80;1.70;;;;;;;26.12;44.87;100905.02;104952;1300;23820;-59
2022/10/12 02:52:17;;;;;;;4.40;1.80;;;;;;;26.02;44.94;100908.39;104965;1316;22432;-60
2022/10/12 02:54:43;;;;;;;3.40;1.80;;;;;;;25.98;45.01;100907.39;105077;1310;21971;-59
2022/10/12 02:57:09;;;;;;;3.30;1.80;;;;;;;25.99;44.95;100908.98;105057;1316;22140;-60
2022/10/12 02:59:34;;;;;;;4.70;2.00;;;;;;;25.94;44.90;100910.04;104905;1316;21974;-59
2022/10/12 03:02:00;;;;;;;2.30;1.60;;;;;;;25.93;44.90;100905.81;105043;1315;21974;-60
2022/10/12 03:04:26;;;;;;;3.70;1.80;;;;;;;25.93;44.93;100907.58;104926;1316;22230;-60
2022/10/12 03:06:53;;;;;;;3.10;2.10;;;;;;;25.92;44.91;100908.58;105077;1316;21964;-59
2022/10/12 03:09:19;;;;;;;2.70;1.80;;;;;;;25.90;44.88;100907.05;105073;1316;21960;-60
2022/10/12 03:11:45;;;;;;;3.00;1.60;;;;;;;25.89;44.99;100907.35;104801;1315;22085;-60
2022/10/12 03:14:11;;;;;;;3.30;1.80;;;;;;;25.89;44.98;100905.89;105028;1315;22229;-60
2022/10/12 03:16:37;;;;;;;3.90;1.70;;;;;;;25.89;44.98;100908.05;105006;1314;21981;-60
2022/10/12 03:19:03;;;;;;;3.50;2.00;;;;;;;25.93;45.02;100909.92;105011;1315;21980;-60
2022/10/12 03:21:29;;;;;;;3.40;2.00;;;;;;;25.98;45.11;100911.37;105009;1315;21972;-60
2022/10/12 03:23:55;;;;;;;3.10;1.80;;;;;;;26.06;45.11;100914.61;105026;1315;21973;-58
2022/10/12 03:26:20;;;;;;;3.40;2.10;;;;;;;26.14;44.97;100915.31;105042;1315;21995;-59
2022/10/12 03:28:46;;;;;;;3.60;1.90;;;;;;;26.21;44.87;100916.36;105001;1315;22031;-59
2022/10/12 03:31:13;;;;;;;3.60;2.10;;;;;;;26.24;44.74;100915.98;105017;1315;22018;-59
2022/10/12 03:33:39;;;;;;;2.60;1.80;;;;;;;26.24;44.78;100916.98;105029;1315;21971;-59
2022/10/12 03:36:05;;;;;;;3.20;1.80;;;;;;;26.26;44.76;100916.16;104984;1315;21985;-59
2022/10/12 03:38:31;;;;;;;2.80;1.60;;;;;;;26.25;44.76;100913.73;105078;1315;21976;-60
2022/10/12 03:40:56;;;;;;;2.80;1.90;;;;;;;26.23;44.71;100912.95;104998;1315;21976;-58
2022/10/12 03:43:24;;;;;;;4.00;2.20;;;;;;;26.22;44.74;100915.88;105028;1315;21973;-59
2022/10/12 03:45:51;;;;;;;2.60;1.90;;;;;;;26.21;44.72;100920.43;105013;1315;21971;-59
2022/10/12 03:48:17;;;;;;;2.30;1.70;;;;;;;26.21;44.76;100917.08;104792;1315;21970;-59
2022/10/12 03:50:48;;;;;;;3.30;2.10;;;;;;;26.24;44.70;100921.66;104836;1315;22760;-51
2022/10/12 03:53:13;;;;;;;5.10;1.90;;;;;;;26.28;44.66;100924.30;105034;1315;21969;-51
2022/10/12 03:55:39;;;;;;;3.20;1.90;;;;;;;26.24;44.75;100924.56;105009;1304;21974;-51
2022/10/12 03:58:05;;;;;;;3.10;2.10;;;;;;;26.23;44.69;100919.94;105046;1315;21974;-51
2022/10/12 04:00:31;;;;;;;4.70;1.70;;;;;;;26.24;44.74;100917.89;105037;1304;21983;-51
2022/10/12 04:02:57;;;;;;;3.80;2.10;;;;;;;26.25;44.74;100917.83;104770;1316;22132;-51
2022/10/12 04:05:23;;;;;;;3.20;1.90;;;;;;;26.26;44.75;100918.13;105024;1315;21995;-51
2022/10/12 04:07:49;;;;;;;3.30;1.60;;;;;;;26.30;44.73;100920.90;105135;1315;21977;-52
2022/10/12 04:10:16;;;;;;;2.70;1.80;;;;;;;26.31;44.68;100924.45;104987;1314;21965;-51
2022/10/12 04:12:45;;;;;;;3.10;1.80;;;;;;;26.32;44.64;100924.23;105091;1315;21971;-52
2022/10/12 04:15:10;;;;;;;2.70;1.80;;;;;;;26.38;44.58;100924.00;105098;1301;21965;-51
2022/10/12 04:17:36;;;;;;;3.40;2.10;;;;;;;26.38;44.63;100925.42;105042;1304;21975;-52
2022/10/12 04:20:02;;;;;;;3.50;1.90;;;;;;;26.39;44.70;100920.98;105010;1304;21972;-53
2022/10/12 04:22:30;;;;;;;3.10;1.90;;;;;;;26.46;44.75;100926.80;104779;1316;21970;-51
2022/10/12 04:26:16;;;;;;;2.80;1.80;;;;;;;25.26;47.32;100932.91;105062;1299;544187;-52
2022/10/12 04:28:42;;;;;;;2.90;1.70;;;;;;;26.18;45.56;100926.58;105464;1299;21956;-52
2022/10/12 04:31:07;;;;;;;3.40;2.20;;;;;;;26.38;45.16;100924.47;105412;1313;21975;-52
2022/10/12 04:33:35;;;;;;;2.90;1.70;;;;;;;26.44;45.14;100927.30;105376;1299;21961;-56
2022/10/12 04:36:01;;;;;;;3.30;2.20;;;;;;;26.50;45.06;100928.16;105458;1302;23081;-57
2022/10/12 04:38:26;;;;;;;3.50;2.00;;;;;;;26.53;44.81;100930.83;105046;1305;175392;-57
2022/10/12 04:40:53;;;;;;;2.90;2.00;;;;;;;26.53;44.94;100931.37;105621;1301;21962;-57
2022/10/12 04:43:19;;;;;;;2.80;1.80;;;;;;;26.56;44.98;100933.11;105604;1305;21975;-59
2022/10/12 04:45:56;;;;;;;2.90;2.00;;;;;;;26.59;44.95;100930.20;105496;1310;21960;-59
2022/10/12 04:48:22;;;;;;;4.10;2.00;;;;;;;26.59;44.75;100932.36;105714;1310;21999;-59
2022/10/12 04:50:48;;;;;;;2.80;2.00;;;;;;;26.59;44.80;100936.89;105680;1309;22132;-60
2022/10/12 04:53:14;;;;;;;3.70;2.00;;;;;;;26.54;44.96;100938.10;105690;1308;21973;-58
2022/10/12 04:55:40;;;;;;;4.10;2.10;;;;;;;26.48;45.05;100944.11;105675;1310;21966;-59
2022/10/12 04:58:06;;;;;;;3.90;2.30;;;;;;;26.46;45.08;100946.46;105665;1310;21966;-59
2022/10/12 05:00:32;;;;;;;3.80;1.90;;;;;;;26.44;45.03;100947.45;105672;1305;21968;-59
2022/10/12 05:02:57;;;;;;;4.00;2.10;;;;;;;26.42;45.01;100952.64;105700;1309;22000;-59
2022/10/12 05:05:23;;;;;;;4.10;2.30;;;;;;;26.41;45.08;100955.77;105696;1308;21961;-59
2022/10/12 05:07:49;;;;;;;4.80;2.70;;;;;;;26.39;45.00;100957.84;105668;1309;21966;-59
2022/10/12 05:10:15;;;;;;;3.90;2.50;;;;;;;26.38;44.90;100959.23;105654;1310;23791;-59
2022/10/12 05:12:41;;;;;;;3.70;2.50;;;;;;;26.43;44.78;100962.63;105646;1309;23663;-58
2022/10/12 05:15:08;;;;;;;3.60;2.10;;;;;;;26.43;44.91;100961.91;105674;1304;21974;-59
2022/10/12 05:17:34;;;;;;;4.90;2.20;;;;;;;26.45;44.74;100967.57;105707;1295;22742;-58
2022/10/12 05:20:01;;;;;;;3.90;2.40;;;;;;;26.44;44.70;100967.23;105626;1295;21961;-57
2022/10/12 05:22:27;;;;;;;4.80;2.80;;;;;;;26.44;44.71;100974.83;105627;1295;21962;-57
2022/10/12 05:24:53;;;;;;;4.40;2.60;;;;;;;26.41;44.72;100978.59;105579;1298;21959;-57
2022/10/12 05:27:19;;;;;;;4.10;2.80;;;;;;;26.40;44.81;100981.52;105455;1298;21963;-57
2022/10/12 05:29:46;;;;;;;4.50;2.60;;;;;;;26.41;44.75;100985.06;105640;1296;21970;-58
2022/10/12 05:32:12;;;;;;;3.50;2.10;;;;;;;26.41;44.84;100984.55;105617;1295;22112;-58
2022/10/12 05:34:38;;;;;;;4.30;2.50;;;;;;;26.40;44.77;100983.52;105637;1296;21956;-57
2022/10/12 05:37:03;;;;;;;4.50;2.60;;;;;;;26.38;44.88;100983.14;105651;1302;24298;-59
2022/10/12 05:39:29;;;;;;;5.00;2.60;;;;;;;26.37;44.95;100983.22;105695;1310;21964;-59
2022/10/12 05:41:56;;;;;;;5.40;2.60;;;;;;;26.41;44.72;100987.44;105683;1308;21962;-59
2022/10/12 05:44:21;;;;;;;3.80;2.30;;;;;;;26.45;44.68;100987.48;105627;1307;21963;-59
2022/10/12 05:46:48;;;;;;;5.00;2.70;;;;;;;26.42;44.75;100987.35;105688;1309;21965;-59
2022/10/12 05:49:14;;;;;;;3.60;2.20;;;;;;;26.46;44.70;100989.64;105677;1310;23616;-59
2022/10/12 05:51:40;;;;;;;4.70;2.50;;;;;;;26.46;44.68;100994.27;105644;1309;21963;-59
2022/10/12 05:54:06;;;;;;;5.20;2.60;;;;;;;26.43;44.77;100990.69;105582;1309;23795;-51
2022/10/12 05:56:32;;;;;;;4.60;2.60;;;;;;;26.45;44.67;100993.11;105567;1309;21977;-51
2022/10/12 05:58:58;;;;;;;4.20;2.40;;;;;;;26.45;44.72;100994.16;105461;1305;21971;-59
2022/10/12 06:01:24;;;;;;;3.70;2.60;;;;;;;26.44;44.74;100994.79;105608;1308;21955;-58
2022/10/12 06:03:50;;;;;;;4.50;2.60;;;;;;;26.43;44.84;101000.23;105441;1310;21960;-59
2022/10/12 06:06:17;;;;;;;4.40;2.40;;;;;;;26.41;44.77;101000.20;105488;1310;22024;-59
2022/10/12 06:08:43;;;;;;;4.40;2.70;;;;;;;26.40;44.78;101006.00;105435;1310;21972;-58
2022/10/12 06:11:09;;;;;;;4.70;2.50;;;;;;;26.39;44.81;101001.45;105535;1309;22077;-58
2022/10/12 06:13:35;;;;;;;4.50;2.70;;;;;;;26.38;44.90;101006.34;105573;1310;22005;-59
2022/10/12 06:16:08;;;;;;;3.40;2.40;;;;;;;26.37;44.85;101006.75;105549;1305;22005;-59
2022/10/12 06:18:34;;;;;;;3.50;2.40;;;;;;;26.38;44.94;101007.23;105552;1309;22186;-59
2022/10/12 06:21:01;;;;;;;5.20;2.70;;;;;;;26.36;44.98;101009.73;105336;1311;21965;-59
2022/10/12 06:23:27;;;;;;;4.40;2.60;;;;;;;26.36;44.88;101013.11;105537;1310;21974;-59
2022/10/12 06:25:52;;;;;;;3.90;2.60;;;;;;;26.35;44.86;101014.81;105451;1310;21999;-58
2022/10/12 06:28:19;;;;;;;4.90;3.00;;;;;;;26.34;44.96;101017.40;105531;1310;22024;-59
2022/10/12 06:30:45;;;;;;;4.60;2.50;;;;;;;26.33;44.97;101019.27;105551;1309;21952;-59
2022/10/12 06:33:11;;;;;;;4.90;2.20;;;;;;;26.32;45.03;101022.36;105614;1310;21949;-61
2022/10/12 06:35:37;;;;;;;5.20;3.10;;;;;;;26.31;44.96;101024.10;105558;1310;21981;-59
2022/10/12 06:38:03;;;;;;;4.90;2.60;;;;;;;26.30;44.99;101028.30;105333;1310;21962;-59
2022/10/12 06:40:28;;;;;;;3.80;2.70;;;;;;;26.31;45.08;101026.44;105624;1310;22018;-60
2022/10/12 06:42:54;;;;;;;4.30;2.80;;;;;;;26.30;45.13;101024.70;105558;1310;22196;-61
2022/10/12 06:45:20;;;;;;;5.90;2.80;;;;;;;26.31;45.11;101024.69;105342;1310;21957;-61
2022/10/12 06:47:46;;;;;;;5.50;2.30;;;;;;;26.29;45.11;101024.05;105541;1309;21961;-60
2022/10/12 06:50:12;;;;;;;5.20;2.60;;;;;;;26.29;45.09;101022.95;105549;1308;21961;-61
2022/10/12 06:52:38;;;;;;;11.80;3.60;;;;;;;26.30;45.15;101022.57;105585;1309;21998;-61
2022/10/12 06:55:06;;;;;;;12.20;3.30;;;;;;;26.30;45.10;101022.90;105561;1308;24003;-57
2022/10/12 06:57:32;;;;;;;15.50;3.70;;;;;;;26.32;45.10;101024.56;105360;1311;21962;-58
2022/10/12 06:59:58;;;;;;;8.10;2.90;;;;;;;26.40;45.28;101024.41;105580;1310;23545;-50
2022/10/12 07:02:24;;;;;;;12.30;3.60;;;;;;;26.50;45.11;101022.05;105353;1305;21964;-51
2022/10/12 07:04:50;;;;;;;7.90;2.90;;;;;;;26.60;45.15;101016.34;105642;1302;22110;-50
2022/10/12 07:07:17;;;;;;;10.40;3.00;;;;;;;26.68;45.14;101016.10;105636;1310;21958;-51
2022/10/12 07:09:45;;;;;;;10.20;3.10;;;;;;;26.77;45.03;101016.64;105647;1295;21961;-51
2022/10/12 07:12:10;;;;;;;8.30;3.20;;;;;;;26.83;44.82;101011.54;105629;1295;21967;-50
2022/10/12 07:14:36;;;;;;;5.30;3.00;;;;;;;26.86;44.66;101010.94;105584;1308;21957;-51
2022/10/12 07:17:05;;;;;;;10.60;3.10;;;;;;;26.89;44.55;101009.54;105156;1301;22256;-50
2022/10/12 07:19:31;;;;;;;8.90;3.00;;;;;;;26.89;44.57;101009.89;105621;1299;21958;-51
2022/10/12 07:21:57;;;;;;;5.10;2.40;;;;;;;26.88;44.63;101007.02;105362;1310;21969;-51
2022/10/12 07:24:22;;;;;;;7.80;3.20;;;;;;;26.89;44.67;101008.43;105636;1310;21970;-51
2022/10/12 07:26:49;;;;;;;10.10;3.60;;;;;;;26.89;44.53;101009.13;105343;1309;21961;-52
2022/10/12 07:29:16;;;;;;;8.70;3.50;;;;;;;26.89;44.56;101011.28;105609;1296;21967;-51
2022/10/12 07:31:42;;;;;;;10.30;3.80;;;;;;;26.87;44.62;101008.91;105627;1302;22047;-51
2022/10/12 07:34:08;;;;;;;7.30;3.90;;;;;;;26.85;44.51;101010.09;105612;1296;21965;-51
2022/10/12 07:36:34;;;;;;;11.30;4.00;;;;;;;26.84;44.58;101009.83;105432;1302;22002;-55
2022/10/12 07:38:59;;;;;;;12.90;5.10;;;;;;;26.84;44.30;101009.27;105525;1296;22005;-64
